Time;durP1;ratioP1;P1;durP2;ratioP2;P2;SDS_P1;SDS_P2;PMS_P1;PMS_P2;Temp;Humidity;BMP_temperature;BMP_pressure;BME280_temperature;BME280_humidity;BME280_pressure;Samples;Min_cycle;Max_cycle;Signal;HPM_P1;HPM_P2
2022/06/26 00:09:16;;;;;;;2.83;1.75;;;13.50;99.90;;;;;;20965516;28;20450;-69
2022/06/26 00:19:19;;;;;;;2.38;1.73;;;13.50;99.90;;;;;;20908958;28;20111;-66
2022/06/26 00:29:21;;;;;;;2.92;1.70;;;13.30;99.90;;;;;;20877545;28;20032;-67
2022/06/26 00:39:24;;;;;;;3.67;1.60;;;13.20;99.90;;;;;;20879734;28;20033;-68
2022/06/26 00:49:27;;;;;;;3.45;2.00;;;13.10;99.90;;;;;;20895560;28;20037;-65
2022/06/26 00:59:31;;;;;;;2.70;2.00;;;13.00;99.90;;;;;;20836269;28;20543;-64
2022/06/26 01:09:35;;;;;;;2.63;1.92;;;12.90;99.90;;;;;;20794875;28;20042;-63
2022/06/26 01:19:37;;;;;;;4.18;2.13;;;12.80;99.90;;;;;;20868564;28;20503;-61
2022/06/26 01:29:40;;;;;;;3.05;2.17;;;12.70;99.90;;;;;;20875588;28;20372;-61
2022/06/26 01:39:42;;;;;;;4.20;2.30;;;12.70;99.90;;;;;;20889983;28;20041;-62
2022/06/26 01:49:45;;;;;;;4.40;1.80;;;12.70;99.90;;;;;;20890682;28;20117;-64
2022/06/26 01:59:49;;;;;;;4.88;2.53;;;13.00;99.90;;;;;;20949871;28;20059;-67
2022/06/26 02:20:22;;;;;;;4.40;2.97;;;13.10;99.90;;;;;;20889384;28;20103;-66
2022/06/26 02:30:24;;;;;;;8.05;3.40;;;13.00;99.90;;;;;;20887230;28;20095;-63
2022/06/26 02:40:29;;;;;;;5.68;3.70;;;12.90;99.90;;;;;;20853528;28;20037;-65
2022/06/26 02:50:32;;;;;;;7.28;4.07;;;12.70;99.90;;;;;;20869168;28;20053;-63
2022/06/26 03:00:35;;;;;;;4.60;3.53;;;12.60;99.90;;;;;;20868108;28;20041;-49
2022/06/26 03:10:38;;;;;;;6.13;3.55;;;12.60;99.90;;;;;;20883729;28;20033;-51
2022/06/26 03:20:41;;;;;;;6.40;4.05;;;12.50;99.90;;;;;;21014538;28;20044;-51
2022/06/26 03:30:49;;;;;;;4.85;3.85;;;12.60;99.90;;;;;;21050323;28;20052;-50
2022/06/26 03:40:53;;;;;;;7.20;4.30;;;12.70;99.90;;;;;;21049951;28;20043;-51
2022/06/26 03:50:58;;;;;;;15.43;4.28;;;12.70;99.90;;;;;;21033541;28;20044;-54
2022/06/26 04:01:02;;;;;;;8.30;4.65;;;12.70;99.90;;;;;;21063161;28;20028;-54
2022/06/26 04:11:04;;;;;;;6.45;4.32;;;12.80;99.90;;;;;;21064595;28;20074;-51
2022/06/26 04:21:12;;;;;;;5.78;4.50;;;12.90;99.90;;;;;;20997282;28;20363;-53
2022/06/26 04:31:15;;;;;;;5.82;4.65;;;13.00;99.90;;;;;;20979764;28;20028;-54
2022/06/26 04:41:34;;;;;;;7.18;5.50;;;13.20;99.90;;;;;;20995113;28;20099;-55
2022/06/26 04:51:37;;;;;;;8.30;5.68;;;13.30;99.90;;;;;;20979722;28;20033;-55
2022/06/26 05:01:53;;;;;;;11.38;5.38;;;13.50;99.90;;;;;;20915846;28;20040;-52
2022/06/26 05:12:23;;;;;;;9.97;5.53;;;13.70;99.90;;;;;;20907101;28;20049;-53
2022/06/26 05:22:49;;;;;;;8.13;4.32;;;13.90;99.90;;;;;;20909469;28;20103;-55
2022/06/26 05:32:56;;;;;;;6.45;3.42;;;14.10;99.90;;;;;;20892017;28;20032;-54
2022/06/26 05:43:01;;;;;;;5.97;3.40;;;14.40;99.90;;;;;;20907603;28;20037;-54
2022/06/26 05:53:04;;;;;;;5.35;3.30;;;14.70;99.90;;;;;;20897374;28;20037;-55
2022/06/26 06:03:15;;;;;;;4.47;3.28;;;15.10;99.90;;;;;;20988652;28;20032;-56
2022/06/26 06:13:19;;;;;;;5.55;1.88;;;15.40;99.90;;;;;;20977590;28;20036;-58
2022/06/26 06:23:23;;;;;;;5.78;1.83;;;18.70;99.90;;;;;;21037094;28;20145;-59
2022/06/26 06:33:28;;;;;;;2.33;1.90;;;25.30;95.10;;;;;;21036831;28;20117;-59
2022/06/26 06:43:35;;;;;;;2.22;1.33;;;25.80;95.40;;;;;;21052629;28;20036;-59
2022/06/26 06:54:07;;;;;;;3.38;2.20;;;28.90;89.90;;;;;;20723294;28;20046;-57
2022/06/26 07:04:10;;;;;;;2.40;2.20;;;30.30;85.50;;;;;;20726978;28;20417;-57
2022/06/26 07:14:13;;;;;;;4.18;2.20;;;31.00;83.30;;;;;;20710199;28;20046;-57
2022/06/26 07:24:18;;;;;;;6.18;3.10;;;31.30;78.40;;;;;;20792648;28;20064;-57
2022/06/26 07:34:43;;;;;;;4.97;3.55;;;31.80;77.30;;;;;;20982246;28;20033;-58
2022/06/26 07:44:47;;;;;;;4.25;2.85;;;32.00;76.00;;;;;;20998429;28;20032;-57
2022/06/26 07:54:52;;;;;;;3.95;2.63;;;30.40;80.80;;;;;;20998425;28;20032;-57
2022/06/26 08:04:54;;;;;;;4.28;2.47;;;30.00;82.70;;;;;;20997486;28;20549;-57
2022/06/26 08:14:57;;;;;;;5.03;2.70;;;30.20;78.90;;;;;;21011699;28;20083;-58
2022/06/26 08:25:00;;;;;;;3.60;2.10;;;29.60;84.10;;;;;;20995979;28;20040;-58
2022/06/26 08:35:08;;;;;;;7.85;3.42;;;30.30;79.40;;;;;;20977563;28;20040;-58
2022/06/26 08:45:12;;;;;;;4.35;2.38;;;29.90;78.90;;;;;;20976930;28;20101;-58
2022/06/26 08:55:16;;;;;;;2.65;1.40;;;29.50;76.20;;;;;;21001470;28;20078;-58
2022/06/26 09:05:18;;;;;;;3.03;2.35;;;29.70;76.80;;;;;;21060441;28;20036;-59
2022/06/26 09:15:23;;;;;;;4.45;2.22;;;30.30;78.20;;;;;;21059106;28;20418;-59
2022/06/26 09:25:45;;;;;;;2.30;2.10;;;30.60;77.50;;;;;;21057809;28;20062;-59
2022/06/26 09:35:48;;;;;;;2.47;2.10;;;30.30;78.20;;;;;;20816851;28;20095;-58
2022/06/26 09:45:53;;;;;;;5.55;2.10;;;30.40;78.80;;;;;;20799269;28;20519;-58
2022/06/26 09:55:59;;;;;;;2.72;1.70;;;29.50;79.30;;;;;;20785743;28;20169;-58
2022/06/26 10:16:48;;;;;;;3.63;1.75;;;30.10;76.30;;;;;;20855457;28;20082;-58
2022/06/26 10:26:56;;;;;;;3.10;1.70;;;29.10;79.40;;;;;;20969846;28;20422;-59
2022/06/26 10:37:05;;;;;;;4.30;1.65;;;29.40;83.40;;;;;;20969002;28;20160;-59
2022/06/26 10:47:16;;;;;;;4.70;1.90;;;30.30;80.30;;;;;;20968504;28;20040;-58
2022/06/26 10:57:36;;;;;;;5.47;1.83;;;29.60;79.10;;;;;;21008902;28;20028;-59
2022/06/26 11:07:47;;;;;;;5.60;1.77;;;29.00;80.00;;;;;;21050976;28;20032;-58
2022/06/26 11:17:58;;;;;;;3.95;1.33;;;28.20;79.80;;;;;;21050467;28;20078;-58
2022/06/26 11:28:03;;;;;;;6.70;1.83;;;27.40;81.30;;;;;;21050134;28;20052;-61
2022/06/26 11:38:13;;;;;;;5.57;1.52;;;27.80;85.10;;;;;;21050113;28;20503;-61
2022/06/26 11:48:17;;;;;;;6.32;1.85;;;29.30;80.60;;;;;;21051154;28;20478;-62
2022/06/26 11:58:26;;;;;;;6.13;1.83;;;30.50;80.40;;;;;;21000040;28;20387;-61
2022/06/26 12:08:30;;;;;;;5.18;1.50;;;30.70;76.70;;;;;;20964916;28;20048;-61
2022/06/26 12:18:38;;;;;;;3.22;1.63;;;29.70;78.90;;;;;;20967296;28;20090;-61
2022/06/26 12:28:58;;;;;;;7.85;1.70;;;29.20;80.30;;;;;;20979031;28;20106;-61
2022/06/26 12:39:02;;;;;;;8.25;2.08;;;30.20;78.60;;;;;;20978591;28;20503;-61
2022/06/26 12:49:05;;;;;;;10.07;2.20;;;30.30;78.00;;;;;;20976676;28;20101;-60
2022/06/26 12:59:08;;;;;;;4.53;1.83;;;29.10;77.50;;;;;;21032761;28;20321;-60
2022/06/26 13:09:11;;;;;;;5.90;1.73;;;28.20;80.10;;;;;;21060004;28;20397;-57
2022/06/26 13:19:13;;;;;;;7.85;1.67;;;27.20;80.80;;;;;;21059094;28;20117;-60
2022/06/26 13:29:17;;;;;;;6.43;1.52;;;26.90;84.70;;;;;;21057680;28;20031;-60
2022/06/26 13:39:26;;;;;;;4.25;1.30;;;27.00;80.60;;;;;;21040168;28;20101;-60
2022/06/26 13:49:31;;;;;;;9.00;1.70;;;26.50;82.50;;;;;;21057805;28;20040;-60
2022/06/26 13:59:34;;;;;;;3.33;1.08;;;27.10;80.30;;;;;;20997262;28;20443;-59
2022/06/26 14:09:39;;;;;;;10.13;1.73;;;27.30;79.50;;;;;;20971085;28;20106;-60
2022/06/26 14:19:42;;;;;;;4.85;1.13;;;28.50;77.40;;;;;;20970183;28;20098;-60
2022/06/26 14:29:47;;;;;;;7.25;1.20;;;28.00;77.20;;;;;;20935979;28;20036;-58
2022/06/26 14:39:49;;;;;;;13.35;1.73;;;27.40;76.40;;;;;;20969015;28;20090;-60
2022/06/26 14:49:52;;;;;;;5.03;1.35;;;27.90;78.80;;;;;;20968512;28;20181;-60
2022/06/26 14:59:54;;;;;;;9.52;1.83;;;29.70;74.90;;;;;;21030279;28;20466;-60
2022/06/26 15:09:57;;;;;;;9.95;2.08;;;29.90;74.00;;;;;;20892623;28;20158;-59
2022/06/26 15:19:59;;;;;;;11.32;1.95;;;31.40;70.20;;;;;;20874852;28;20513;-59
2022/06/26 15:30:03;;;;;;;9.80;2.25;;;32.40;68.40;;;;;;20874917;28;20106;-58
2022/06/26 15:40:07;;;;;;;5.27;1.70;;;32.50;66.20;;;;;;20891170;28;20212;-59
2022/06/26 15:50:11;;;;;;;9.33;2.73;;;32.30;66.10;;;;;;20964932;28;20448;-59
2022/06/26 16:00:15;;;;;;;10.30;2.15;;;31.60;67.90;;;;;;21014974;28;20049;-58
2022/06/26 16:10:17;;;;;;;7.63;1.70;;;29.90;69.70;;;;;;20980358;28;20037;-59
2022/06/26 16:20:20;;;;;;;8.52;2.03;;;27.40;74.00;;;;;;20979001;28;20063;-59
2022/06/26 16:30:23;;;;;;;7.55;1.25;;;26.20;79.80;;;;;;20978397;28;20097;-59
2022/06/26 16:40:25;;;;;;;4.53;1.40;;;25.70;80.70;;;;;;20978229;28;20033;-59
2022/06/26 16:50:28;;;;;;;15.00;1.85;;;25.60;80.50;;;;;;20977238;28;20048;-59
2022/06/26 17:00:31;;;;;;;11.23;1.88;;;24.50;83.00;;;;;;21043938;28;20086;-59
2022/06/26 17:10:34;;;;;;;4.05;1.50;;;23.10;88.10;;;;;;21059408;28;20059;-53
2022/06/26 17:20:37;;;;;;;6.28;1.80;;;22.10;91.30;;;;;;21059235;28;20052;-57
2022/06/26 17:30:40;;;;;;;6.80;1.88;;;21.10;91.50;;;;;;21058848;28;20032;-58
2022/06/26 17:40:44;;;;;;;3.90;1.45;;;20.90;92.20;;;;;;21057298;28;20043;-57
2022/06/26 17:50:47;;;;;;;5.65;1.60;;;20.30;93.40;;;;;;21056941;28;20367;-57
2022/06/26 18:00:49;;;;;;;4.70;1.83;;;19.90;95.00;;;;;;20987381;28;20086;-56
2022/06/26 18:10:52;;;;;;;7.57;1.80;;;19.70;95.50;;;;;;20971651;28;20161;-54
2022/06/26 18:20:55;;;;;;;5.93;2.10;;;19.30;96.20;;;;;;20969526;28;20052;-55
2022/06/26 18:30:59;;;;;;;9.02;2.15;;;18.90;96.40;;;;;;20970014;28;20041;-56
2022/06/26 18:41:01;;;;;;;5.90;2.30;;;18.70;96.00;;;;;;20969311;28;20093;-55
2022/06/26 18:51:07;;;;;;;6.22;1.75;;;18.30;97.30;;;;;;20968830;28;20369;-56
2022/06/26 19:01:09;;;;;;;8.30;2.58;;;17.90;98.10;;;;;;21040700;28;20040;-54
2022/06/26 19:21:33;;;;;;;6.47;1.75;;;17.10;99.00;;;;;;20983755;28;20053;-56
2022/06/26 19:31:37;;;;;;;13.15;2.38;;;16.90;99.90;;;;;;20993355;28;20090;-56
2022/06/26 19:41:39;;;;;;;7.05;1.80;;;16.60;99.90;;;;;;20983855;28;20114;-55
2022/06/26 19:51:42;;;;;;;8.50;2.65;;;16.50;99.90;;;;;;20999592;28;20037;-55
2022/06/26 20:01:44;;;;;;;9.35;2.05;;;16.70;99.90;;;;;;20905109;28;20111;-57
2022/06/26 20:11:47;;;;;;;7.57;2.22;;;16.70;99.90;;;;;;20915090;28;20032;-57
2022/06/26 20:21:50;;;;;;;7.68;2.30;;;16.70;99.90;;;;;;20913895;28;20053;-57
2022/06/26 20:31:55;;;;;;;6.93;2.45;;;16.80;99.90;;;;;;20896935;28;20533;-57
2022/06/26 20:41:57;;;;;;;6.57;1.90;;;16.90;99.90;;;;;;20911895;28;20103;-48
2022/06/26 20:52:01;;;;;;;13.95;2.92;;;17.00;99.90;;;;;;20895211;28;20044;-57
2022/06/26 21:02:04;;;;;;;7.53;1.85;;;16.80;99.90;;;;;;20977107;28;20094;-58
2022/06/26 21:12:08;;;;;;;6.20;3.05;;;16.50;99.90;;;;;;20976432;28;20094;-57
2022/06/26 21:22:10;;;;;;;6.03;1.95;;;16.30;99.90;;;;;;20975220;28;20048;-57
2022/06/26 21:32:14;;;;;;;7.00;2.28;;;16.10;99.90;;;;;;20974863;28;20037;-56
2022/06/26 21:42:16;;;;;;;7.43;2.75;;;16.00;99.90;;;;;;20975489;28;20041;-57
2022/06/26 21:52:19;;;;;;;13.52;2.67;;;15.90;99.90;;;;;;20974276;28;20044;-56
2022/06/26 22:02:21;;;;;;;7.72;2.92;;;15.80;99.90;;;;;;20972100;28;20032;-57
2022/06/26 22:12:24;;;;;;;11.70;3.20;;;15.70;99.90;;;;;;20971419;28;20446;-55
2022/06/26 22:22:26;;;;;;;6.72;3.13;;;15.70;99.90;;;;;;20970695;28;20048;-57
2022/06/26 22:32:29;;;;;;;10.25;3.55;;;15.60;99.90;;;;;;20969668;28;20032;-57
2022/06/26 22:42:31;;;;;;;9.50;3.10;;;15.50;99.90;;;;;;20970225;28;20112;-55
2022/06/26 22:52:34;;;;;;;7.55;2.63;;;15.50;99.90;;;;;;20967740;28;20036;-49
2022/06/26 23:02:37;;;;;;;6.72;2.78;;;15.50;99.90;;;;;;20884875;28;20040;-48
2022/06/26 23:12:39;;;;;;;6.75;3.05;;;15.50;99.90;;;;;;20884799;28;20041;-49
2022/06/26 23:22:42;;;;;;;7.05;3.15;;;15.30;99.90;;;;;;20967114;28;20067;-58
2022/06/26 23:32:44;;;;;;;10.20;3.17;;;15.30;99.90;;;;;;20984585;28;20098;-57
2022/06/26 23:42:47;;;;;;;15.95;4.32;;;15.30;99.90;;;;;;20965871;28;20059;-58
2022/06/26 23:52:50;;;;;;;6.75;3.42;;;15.20;99.90;;;;;;20962732;28;20087;-58
